sensor_id;sensor_type;location;lat;lon;timestamp;temperature;humidity
16976;DHT22;8604;48.148;-1.786;2023-04-25T00:00:01;8.50;99.90
16976;DHT22;8604;48.148;-1.786;2023-04-25T00:02:38;8.50;99.90
16976;DHT22;8604;48.148;-1.786;2023-04-25T00:05:07;8.50;99.90
16976;DHT22;8604;48.148;-1.786;2023-04-25T00:07:36;8.50;99.90
16976;DHT22;8604;48.148;-1.786;2023-04-25T00:10:06;8.40;99.90
16976;DHT22;8604;48.148;-1.786;2023-04-25T00:12:35;8.40;99.90
16976;DHT22;8604;48.148;-1.786;2023-04-25T00:15:05;8.40;99.90
16976;DHT22;8604;48.148;-1.786;2023-04-25T00:17:34;8.40;99.90
16976;DHT22;8604;48.148;-1.786;2023-04-25T00:20:03;8.40;99.90
16976;DHT22;8604;48.148;-1.786;2023-04-25T00:22:36;8.40;99.90
16976;DHT22;8604;48.148;-1.786;2023-04-25T00:25:05;8.30;99.90
16976;DHT22;8604;48.148;-1.786;2023-04-25T00:27:35;8.30;99.90
16976;DHT22;8604;48.148;-1.786;2023-04-25T00:30:05;8.20;99.90
16976;DHT22;8604;48.148;-1.786;2023-04-25T00:32:34;8.30;99.90
16976;DHT22;8604;48.148;-1.786;2023-04-25T00:35:03;8.20;99.90
16976;DHT22;8604;48.148;-1.786;2023-04-25T00:37:32;8.10;99.90
16976;DHT22;8604;48.148;-1.786;2023-04-25T00:40:00;8.10;99.90
16976;DHT22;8604;48.148;-1.786;2023-04-25T00:42:30;8.10;99.90
16976;DHT22;8604;48.148;-1.786;2023-04-25T00:45:01;8.10;99.90
16976;DHT22;8604;48.148;-1.786;2023-04-25T00:47:29;8.00;99.90
16976;DHT22;8604;48.148;-1.786;2023-04-25T00:49:58;8.00;99.90
16976;DHT22;8604;48.148;-1.786;2023-04-25T00:52:26;8.00;99.90
16976;DHT22;8604;48.148;-1.786;2023-04-25T00:54:55;8.00;99.90
16976;DHT22;8604;48.148;-1.786;2023-04-25T00:57:23;8.00;99.90
16976;DHT22;8604;48.148;-1.786;2023-04-25T00:59:53;8.00;99.90
16976;DHT22;8604;48.148;-1.786;2023-04-25T01:02:23;7.90;99.90
16976;DHT22;8604;48.148;-1.786;2023-04-25T01:04:53;7.90;99.90
16976;DHT22;8604;48.148;-1.786;2023-04-25T01:07:21;8.00;99.90
16976;DHT22;8604;48.148;-1.786;2023-04-25T01:09:53;7.90;99.90
16976;DHT22;8604;48.148;-1.786;2023-04-25T01:12:22;7.90;99.90
16976;DHT22;8604;48.148;-1.786;2023-04-25T01:14:50;7.90;99.90
16976;DHT22;8604;48.148;-1.786;2023-04-25T01:17:19;7.90;99.90
16976;DHT22;8604;48.148;-1.786;2023-04-25T01:19:50;7.80;99.90
16976;DHT22;8604;48.148;-1.786;2023-04-25T01:22:20;7.80;99.90
16976;DHT22;8604;48.148;-1.786;2023-04-25T01:24:50;7.80;99.90
16976;DHT22;8604;48.148;-1.786;2023-04-25T01:27:18;7.80;99.90
16976;DHT22;8604;48.148;-1.786;2023-04-25T01:29:48;7.80;99.90
16976;DHT22;8604;48.148;-1.786;2023-04-25T01:32:17;7.70;99.90
16976;DHT22;8604;48.148;-1.786;2023-04-25T01:34:46;7.70;99.90
16976;DHT22;8604;48.148;-1.786;2023-04-25T01:37:14;7.70;99.90
16976;DHT22;8604;48.148;-1.786;2023-04-25T01:39:45;7.70;99.90
16976;DHT22;8604;48.148;-1.786;2023-04-25T01:42:14;7.70;99.90
16976;DHT22;8604;48.148;-1.786;2023-04-25T01:44:42;7.70;99.90
16976;DHT22;8604;48.148;-1.786;2023-04-25T01:47:10;7.70;99.90
16976;DHT22;8604;48.148;-1.786;2023-04-25T01:49:39;7.60;99.90
16976;DHT22;8604;48.148;-1.786;2023-04-25T01:52:08;7.60;99.90
16976;DHT22;8604;48.148;-1.786;2023-04-25T01:54:36;7.60;99.90
16976;DHT22;8604;48.148;-1.786;2023-04-25T01:57:06;7.50;99.90
16976;DHT22;8604;48.148;-1.786;2023-04-25T01:59:36;7.50;99.90
16976;DHT22;8604;48.148;-1.786;2023-04-25T02:02:20;7.50;99.90
16976;DHT22;8604;48.148;-1.786;2023-04-25T02:04:50;7.50;99.90
16976;DHT22;8604;48.148;-1.786;2023-04-25T02:07:18;7.50;99.90
16976;DHT22;8604;48.148;-1.786;2023-04-25T02:09:50;7.50;99.90
16976;DHT22;8604;48.148;-1.786;2023-04-25T02:12:21;7.40;99.90
16976;DHT22;8604;48.148;-1.786;2023-04-25T02:15:05;7.40;99.90
16976;DHT22;8604;48.148;-1.786;2023-04-25T02:17:41;7.40;99.90
16976;DHT22;8604;48.148;-1.786;2023-04-25T02:20:11;7.40;99.90
16976;DHT22;8604;48.148;-1.786;2023-04-25T02:22:39;7.40;99.90
16976;DHT22;8604;48.148;-1.786;2023-04-25T02:25:10;7.40;99.90
16976;DHT22;8604;48.148;-1.786;2023-04-25T02:27:40;7.30;99.90
16976;DHT22;8604;48.148;-1.786;2023-04-25T02:30:09;7.30;99.90
16976;DHT22;8604;48.148;-1.786;2023-04-25T02:32:37;7.30;99.90
16976;DHT22;8604;48.148;-1.786;2023-04-25T02:35:06;7.30;99.90
16976;DHT22;8604;48.148;-1.786;2023-04-25T02:37:36;7.30;99.90
16976;DHT22;8604;48.148;-1.786;2023-04-25T02:40:07;7.20;99.90
16976;DHT22;8604;48.148;-1.786;2023-04-25T02:42:40;7.20;99.90
16976;DHT22;8604;48.148;-1.786;2023-04-25T02:45:09;7.20;99.90
16976;DHT22;8604;48.148;-1.786;2023-04-25T02:47:37;7.20;99.90
16976;DHT22;8604;48.148;-1.786;2023-04-25T02:50:07;7.20;99.90
16976;DHT22;8604;48.148;-1.786;2023-04-25T02:52:35;7.10;99.90
16976;DHT22;8604;48.148;-1.786;2023-04-25T02:55:12;7.10;99.90
16976;DHT22;8604;48.148;-1.786;2023-04-25T02:57:43;7.10;99.90
16976;DHT22;8604;48.148;-1.786;2023-04-25T03:00:16;7.10;99.90
16976;DHT22;8604;48.148;-1.786;2023-04-25T03:02:44;7.10;99.90
16976;DHT22;8604;48.148;-1.786;2023-04-25T03:05:13;7.00;99.90
16976;DHT22;8604;48.148;-1.786;2023-04-25T03:07:41;7.00;99.90
16976;DHT22;8604;48.148;-1.786;2023-04-25T03:10:10;7.10;99.90
16976;DHT22;8604;48.148;-1.786;2023-04-25T03:12:39;7.00;99.90
16976;DHT22;8604;48.148;-1.786;2023-04-25T03:15:09;7.10;99.90
16976;DHT22;8604;48.148;-1.786;2023-04-25T03:17:38;7.00;99.90
16976;DHT22;8604;48.148;-1.786;2023-04-25T03:20:10;7.00;99.90
16976;DHT22;8604;48.148;-1.786;2023-04-25T03:22:39;7.00;99.90
16976;DHT22;8604;48.148;-1.786;2023-04-25T03:25:08;7.00;99.90
16976;DHT22;8604;48.148;-1.786;2023-04-25T03:27:36;7.00;99.90
16976;DHT22;8604;48.148;-1.786;2023-04-25T03:30:06;7.00;99.90
16976;DHT22;8604;48.148;-1.786;2023-04-25T03:32:38;6.90;99.90
16976;DHT22;8604;48.148;-1.786;2023-04-25T03:35:07;6.90;99.90
16976;DHT22;8604;48.148;-1.786;2023-04-25T03:37:36;6.90;99.90
16976;DHT22;8604;48.148;-1.786;2023-04-25T03:40:05;6.90;99.90
16976;DHT22;8604;48.148;-1.786;2023-04-25T03:42:54;6.90;99.90
16976;DHT22;8604;48.148;-1.786;2023-04-25T03:45:23;6.90;99.90
16976;DHT22;8604;48.148;-1.786;2023-04-25T03:47:56;6.90;99.90
16976;DHT22;8604;48.148;-1.786;2023-04-25T03:50:26;6.90;99.90
16976;DHT22;8604;48.148;-1.786;2023-04-25T03:52:54;6.90;99.90
16976;DHT22;8604;48.148;-1.786;2023-04-25T03:55:25;6.90;99.90
16976;DHT22;8604;48.148;-1.786;2023-04-25T03:57:54;6.80;99.90
16976;DHT22;8604;48.148;-1.786;2023-04-25T04:00:22;6.80;99.90
16976;DHT22;8604;48.148;-1.786;2023-04-25T04:02:52;6.80;99.90
16976;DHT22;8604;48.148;-1.786;2023-04-25T04:05:22;6.70;99.90
16976;DHT22;8604;48.148;-1.786;2023-04-25T04:07:54;6.70;99.90
16976;DHT22;8604;48.148;-1.786;2023-04-25T04:10:23;6.70;99.90
16976;DHT22;8604;48.148;-1.786;2023-04-25T04:12:54;6.70;99.90
16976;DHT22;8604;48.148;-1.786;2023-04-25T04:15:23;6.70;99.90
16976;DHT22;8604;48.148;-1.786;2023-04-25T04:17:53;6.70;99.90
16976;DHT22;8604;48.148;-1.786;2023-04-25T04:20:23;6.60;99.90
16976;DHT22;8604;48.148;-1.786;2023-04-25T04:22:51;6.70;99.90
16976;DHT22;8604;48.148;-1.786;2023-04-25T04:25:20;6.70;99.90
16976;DHT22;8604;48.148;-1.786;2023-04-25T04:28:07;6.70;99.90
16976;DHT22;8604;48.148;-1.786;2023-04-25T04:30:41;6.70;99.90
16976;DHT22;8604;48.148;-1.786;2023-04-25T04:33:13;6.70;99.90
16976;DHT22;8604;48.148;-1.786;2023-04-25T04:35:45;6.70;99.90
16976;DHT22;8604;48.148;-1.786;2023-04-25T04:38:15;6.70;99.90
16976;DHT22;8604;48.148;-1.786;2023-04-25T04:40:43;6.70;99.90
16976;DHT22;8604;48.148;-1.786;2023-04-25T04:43:19;6.70;99.90
16976;DHT22;8604;48.148;-1.786;2023-04-25T04:45:53;6.70;99.90
16976;DHT22;8604;48.148;-1.786;2023-04-25T04:48:52;6.70;99.90
16976;DHT22;8604;48.148;-1.786;2023-04-25T04:51:51;6.70;99.90
16976;DHT22;8604;48.148;-1.786;2023-04-25T04:54:52;6.70;99.90
16976;DHT22;8604;48.148;-1.786;2023-04-25T04:57:39;6.80;99.90
16976;DHT22;8604;48.148;-1.786;2023-04-25T05:00:30;6.80;99.90
16976;DHT22;8604;48.148;-1.786;2023-04-25T05:03:28;6.80;99.90
16976;DHT22;8604;48.148;-1.786;2023-04-25T05:06:19;6.80;99.90
16976;DHT22;8604;48.148;-1.786;2023-04-25T05:09:11;6.80;99.90
16976;DHT22;8604;48.148;-1.786;2023-04-25T05:12:03;6.80;99.90
16976;DHT22;8604;48.148;-1.786;2023-04-25T05:14:50;6.80;99.90
16976;DHT22;8604;48.148;-1.786;2023-04-25T05:17:55;6.80;99.90
16976;DHT22;8604;48.148;-1.786;2023-04-25T05:20:31;6.80;99.90
16976;DHT22;8604;48.148;-1.786;2023-04-25T05:23:21;6.80;99.90
16976;DHT22;8604;48.148;-1.786;2023-04-25T05:26:11;6.80;99.90
16976;DHT22;8604;48.148;-1.786;2023-04-25T05:28:52;6.90;99.90
16976;DHT22;8604;48.148;-1.786;2023-04-25T05:31:36;6.90;99.90
16976;DHT22;8604;48.148;-1.786;2023-04-25T05:34:10;6.90;99.90
16976;DHT22;8604;48.148;-1.786;2023-04-25T05:36:51;6.90;99.90
16976;DHT22;8604;48.148;-1.786;2023-04-25T05:39:19;6.90;99.90
16976;DHT22;8604;48.148;-1.786;2023-04-25T05:42:12;6.90;99.90
16976;DHT22;8604;48.148;-1.786;2023-04-25T05:45:19;7.00;99.90
16976;DHT22;8604;48.148;-1.786;2023-04-25T05:52:31;7.00;99.90
16976;DHT22;8604;48.148;-1.786;2023-04-25T05:58:30;7.00;99.90
16976;DHT22;8604;48.148;-1.786;2023-04-25T06:01:19;7.10;99.90
16976;DHT22;8604;48.148;-1.786;2023-04-25T06:04:20;7.20;99.90
16976;DHT22;8604;48.148;-1.786;2023-04-25T06:07:14;7.20;99.90
16976;DHT22;8604;48.148;-1.786;2023-04-25T06:09:49;7.30;99.90
16976;DHT22;8604;48.148;-1.786;2023-04-25T06:13:40;7.30;99.90
16976;DHT22;8604;48.148;-1.786;2023-04-25T06:17:20;7.30;99.90
16976;DHT22;8604;48.148;-1.786;2023-04-25T06:20:08;7.40;99.90
16976;DHT22;8604;48.148;-1.786;2023-04-25T06:22:57;7.50;99.90
16976;DHT22;8604;48.148;-1.786;2023-04-25T06:26:19;7.50;99.90
16976;DHT22;8604;48.148;-1.786;2023-04-25T06:32:48;7.60;99.90
16976;DHT22;8604;48.148;-1.786;2023-04-25T06:35:27;7.70;99.90
16976;DHT22;8604;48.148;-1.786;2023-04-25T06:38:07;7.80;99.90
16976;DHT22;8604;48.148;-1.786;2023-04-25T06:40:57;7.90;99.90
16976;DHT22;8604;48.148;-1.786;2023-04-25T06:44:18;8.20;99.90
16976;DHT22;8604;48.148;-1.786;2023-04-25T06:46:56;8.60;99.90
16976;DHT22;8604;48.148;-1.786;2023-04-25T06:49:25;8.80;99.90
16976;DHT22;8604;48.148;-1.786;2023-04-25T06:51:58;9.10;99.90
16976;DHT22;8604;48.148;-1.786;2023-04-25T06:58:18;9.40;99.90
16976;DHT22;8604;48.148;-1.786;2023-04-25T07:01:04;9.70;99.90
16976;DHT22;8604;48.148;-1.786;2023-04-25T07:03:34;10.00;99.90
16976;DHT22;8604;48.148;-1.786;2023-04-25T07:06:13;10.20;99.90
16976;DHT22;8604;48.148;-1.786;2023-04-25T07:08:42;10.50;99.90
16976;DHT22;8604;48.148;-1.786;2023-04-25T07:11:10;10.50;99.90
16976;DHT22;8604;48.148;-1.786;2023-04-25T07:13:40;10.70;99.90
16976;DHT22;8604;48.148;-1.786;2023-04-25T07:16:08;10.70;99.90
16976;DHT22;8604;48.148;-1.786;2023-04-25T07:18:39;11.10;99.90
16976;DHT22;8604;48.148;-1.786;2023-04-25T07:21:08;11.50;99.90
16976;DHT22;8604;48.148;-1.786;2023-04-25T07:23:37;11.90;99.90
16976;DHT22;8604;48.148;-1.786;2023-04-25T07:26:11;12.10;99.90
16976;DHT22;8604;48.148;-1.786;2023-04-25T07:28:57;12.20;99.90
16976;DHT22;8604;48.148;-1.786;2023-04-25T07:31:26;12.30;99.90
16976;DHT22;8604;48.148;-1.786;2023-04-25T07:33:57;12.50;99.90
16976;DHT22;8604;48.148;-1.786;2023-04-25T07:36:28;12.40;99.90
16976;DHT22;8604;48.148;-1.786;2023-04-25T07:38:58;12.50;99.90
16976;DHT22;8604;48.148;-1.786;2023-04-25T07:42:05;12.70;99.90
16976;DHT22;8604;48.148;-1.786;2023-04-25T07:44:25;12.80;99.90
16976;DHT22;8604;48.148;-1.786;2023-04-25T07:46:55;12.60;99.90
16976;DHT22;8604;48.148;-1.786;2023-04-25T07:49:32;12.80;99.90
16976;DHT22;8604;48.148;-1.786;2023-04-25T07:52:03;12.90;99.90
16976;DHT22;8604;48.148;-1.786;2023-04-25T07:54:34;13.00;99.90
16976;DHT22;8604;48.148;-1.786;2023-04-25T07:57:16;13.00;99.90
16976;DHT22;8604;48.148;-1.786;2023-04-25T08:00:09;13.10;99.90
16976;DHT22;8604;48.148;-1.786;2023-04-25T08:02:43;13.10;99.90
16976;DHT22;8604;48.148;-1.786;2023-04-25T08:05:19;13.40;99.90
16976;DHT22;8604;48.148;-1.786;2023-04-25T08:08:22;13.40;99.90
16976;DHT22;8604;48.148;-1.786;2023-04-25T08:11:15;13.40;99.90
16976;DHT22;8604;48.148;-1.786;2023-04-25T08:13:49;13.30;99.90
16976;DHT22;8604;48.148;-1.786;2023-04-25T08:16:18;13.30;99.90
16976;DHT22;8604;48.148;-1.786;2023-04-25T08:18:47;13.10;99.90
16976;DHT22;8604;48.148;-1.786;2023-04-25T08:21:17;13.20;99.90
16976;DHT22;8604;48.148;-1.786;2023-04-25T08:23:46;13.30;99.90
16976;DHT22;8604;48.148;-1.786;2023-04-25T08:26:23;13.20;99.90
16976;DHT22;8604;48.148;-1.786;2023-04-25T08:28:52;13.30;99.90
16976;DHT22;8604;48.148;-1.786;2023-04-25T08:31:21;13.40;99.90
16976;DHT22;8604;48.148;-1.786;2023-04-25T08:33:59;13.50;99.90
16976;DHT22;8604;48.148;-1.786;2023-04-25T08:36:35;13.60;99.90
16976;DHT22;8604;48.148;-1.786;2023-04-25T08:39:18;13.80;99.90
16976;DHT22;8604;48.148;-1.786;2023-04-25T08:42:12;13.90;99.90
16976;DHT22;8604;48.148;-1.786;2023-04-25T08:44:40;14.20;99.90
16976;DHT22;8604;48.148;-1.786;2023-04-25T08:47:09;14.10;99.90
16976;DHT22;8604;48.148;-1.786;2023-04-25T08:49:46;14.20;99.90
16976;DHT22;8604;48.148;-1.786;2023-04-25T08:52:22;14.40;99.90
16976;DHT22;8604;48.148;-1.786;2023-04-25T08:54:53;14.60;99.90
16976;DHT22;8604;48.148;-1.786;2023-04-25T08:57:23;14.60;99.90
16976;DHT22;8604;48.148;-1.786;2023-04-25T08:59:53;14.70;99.90
16976;DHT22;8604;48.148;-1.786;2023-04-25T09:02:24;14.80;99.90
16976;DHT22;8604;48.148;-1.786;2023-04-25T09:04:54;14.80;99.90
16976;DHT22;8604;48.148;-1.786;2023-04-25T09:07:24;14.70;99.90
16976;DHT22;8604;48.148;-1.786;2023-04-25T09:09:54;14.50;99.90
16976;DHT22;8604;48.148;-1.786;2023-04-25T09:12:22;14.80;99.90
16976;DHT22;8604;48.148;-1.786;2023-04-25T09:15:03;14.80;99.90
16976;DHT22;8604;48.148;-1.786;2023-04-25T09:17:55;14.80;99.90
16976;DHT22;8604;48.148;-1.786;2023-04-25T09:20:28;14.60;99.90
16976;DHT22;8604;48.148;-1.786;2023-04-25T09:23:03;14.50;99.90
16976;DHT22;8604;48.148;-1.786;2023-04-25T09:25:35;14.40;99.90
16976;DHT22;8604;48.148;-1.786;2023-04-25T09:28:08;14.10;99.90
16976;DHT22;8604;48.148;-1.786;2023-04-25T09:30:37;14.50;99.90
16976;DHT22;8604;48.148;-1.786;2023-04-25T09:33:11;15.10;99.90
16976;DHT22;8604;48.148;-1.786;2023-04-25T09:35:44;15.30;99.90
16976;DHT22;8604;48.148;-1.786;2023-04-25T09:38:22;15.30;99.90
16976;DHT22;8604;48.148;-1.786;2023-04-25T09:40:58;15.10;99.90
16976;DHT22;8604;48.148;-1.786;2023-04-25T09:43:38;14.80;99.90
16976;DHT22;8604;48.148;-1.786;2023-04-25T09:46:08;14.70;99.90
16976;DHT22;8604;48.148;-1.786;2023-04-25T09:48:48;14.60;99.90
16976;DHT22;8604;48.148;-1.786;2023-04-25T09:51:26;14.60;99.90
16976;DHT22;8604;48.148;-1.786;2023-04-25T09:53:58;14.60;99.90
16976;DHT22;8604;48.148;-1.786;2023-04-25T09:56:36;14.70;99.90
16976;DHT22;8604;48.148;-1.786;2023-04-25T09:59:07;14.70;99.90
16976;DHT22;8604;48.148;-1.786;2023-04-25T10:01:39;14.80;99.90
16976;DHT22;8604;48.148;-1.786;2023-04-25T10:04:20;14.90;99.90
16976;DHT22;8604;48.148;-1.786;2023-04-25T10:06:59;15.10;99.90
16976;DHT22;8604;48.148;-1.786;2023-04-25T10:09:32;15.20;99.90
16976;DHT22;8604;48.148;-1.786;2023-04-25T10:12:02;15.20;99.90
16976;DHT22;8604;48.148;-1.786;2023-04-25T10:14:32;15.30;99.90
16976;DHT22;8604;48.148;-1.786;2023-04-25T10:17:00;15.90;99.90
16976;DHT22;8604;48.148;-1.786;2023-04-25T10:19:29;16.10;99.90
16976;DHT22;8604;48.148;-1.786;2023-04-25T10:22:03;16.10;99.90
16976;DHT22;8604;48.148;-1.786;2023-04-25T10:24:35;16.00;99.90
16976;DHT22;8604;48.148;-1.786;2023-04-25T10:27:04;15.90;99.90
16976;DHT22;8604;48.148;-1.786;2023-04-25T10:29:33;15.80;99.90
16976;DHT22;8604;48.148;-1.786;2023-04-25T10:32:03;15.50;99.90
16976;DHT22;8604;48.148;-1.786;2023-04-25T10:34:43;15.60;99.90
16976;DHT22;8604;48.148;-1.786;2023-04-25T10:37:14;15.90;99.90
16976;DHT22;8604;48.148;-1.786;2023-04-25T10:39:44;16.00;99.90
16976;DHT22;8604;48.148;-1.786;2023-04-25T10:42:13;16.00;99.90
16976;DHT22;8604;48.148;-1.786;2023-04-25T10:45:00;16.00;99.90
16976;DHT22;8604;48.148;-1.786;2023-04-25T10:47:35;16.50;99.90
16976;DHT22;8604;48.148;-1.786;2023-04-25T10:50:08;17.30;99.90
16976;DHT22;8604;48.148;-1.786;2023-04-25T10:52:39;18.30;99.90
16976;DHT22;8604;48.148;-1.786;2023-04-25T10:55:10;19.10;99.90
16976;DHT22;8604;48.148;-1.786;2023-04-25T10:57:40;19.60;99.90
16976;DHT22;8604;48.148;-1.786;2023-04-25T11:00:12;19.90;99.90
16976;DHT22;8604;48.148;-1.786;2023-04-25T11:02:44;20.10;99.90
16976;DHT22;8604;48.148;-1.786;2023-04-25T11:05:23;20.00;99.90
16976;DHT22;8604;48.148;-1.786;2023-04-25T11:07:59;20.60;99.90
16976;DHT22;8604;48.148;-1.786;2023-04-25T11:10:35;20.40;99.90
16976;DHT22;8604;48.148;-1.786;2023-04-25T11:13:04;19.90;99.90
16976;DHT22;8604;48.148;-1.786;2023-04-25T11:15:32;19.50;99.90
16976;DHT22;8604;48.148;-1.786;2023-04-25T11:18:01;19.10;99.90
16976;DHT22;8604;48.148;-1.786;2023-04-25T11:20:30;19.00;99.90
16976;DHT22;8604;48.148;-1.786;2023-04-25T11:22:58;19.20;99.90
16976;DHT22;8604;48.148;-1.786;2023-04-25T11:25:28;19.40;99.90
16976;DHT22;8604;48.148;-1.786;2023-04-25T11:27:59;19.30;99.90
16976;DHT22;8604;48.148;-1.786;2023-04-25T11:30:28;19.20;99.90
16976;DHT22;8604;48.148;-1.786;2023-04-25T11:32:58;19.00;99.90
16976;DHT22;8604;48.148;-1.786;2023-04-25T11:35:27;19.20;99.90
16976;DHT22;8604;48.148;-1.786;2023-04-25T11:37:56;19.00;99.90
16976;DHT22;8604;48.148;-1.786;2023-04-25T11:40:24;19.00;99.90
16976;DHT22;8604;48.148;-1.786;2023-04-25T11:42:53;18.90;99.90
16976;DHT22;8604;48.148;-1.786;2023-04-25T11:45:23;18.80;99.90
16976;DHT22;8604;48.148;-1.786;2023-04-25T11:47:52;18.70;99.90
16976;DHT22;8604;48.148;-1.786;2023-04-25T11:50:23;18.60;99.90
16976;DHT22;8604;48.148;-1.786;2023-04-25T11:52:56;18.30;99.90
16976;DHT22;8604;48.148;-1.786;2023-04-25T11:55:25;17.70;99.90
16976;DHT22;8604;48.148;-1.786;2023-04-25T11:57:54;17.40;99.90
16976;DHT22;8604;48.148;-1.786;2023-04-25T12:00:25;17.20;99.90
16976;DHT22;8604;48.148;-1.786;2023-04-25T12:02:55;17.10;99.90
16976;DHT22;8604;48.148;-1.786;2023-04-25T12:05:26;17.10;99.90
16976;DHT22;8604;48.148;-1.786;2023-04-25T12:08:10;17.20;99.90
16976;DHT22;8604;48.148;-1.786;2023-04-25T12:10:41;17.00;99.90
16976;DHT22;8604;48.148;-1.786;2023-04-25T12:13:21;17.00;99.90
16976;DHT22;8604;48.148;-1.786;2023-04-25T12:15:51;17.00;99.90
16976;DHT22;8604;48.148;-1.786;2023-04-25T12:18:20;16.90;99.90
16976;DHT22;8604;48.148;-1.786;2023-04-25T12:20:49;16.90;99.90
16976;DHT22;8604;48.148;-1.786;2023-04-25T12:23:17;16.90;99.90
16976;DHT22;8604;48.148;-1.786;2023-04-25T12:25:53;16.90;99.90
16976;DHT22;8604;48.148;-1.786;2023-04-25T12:28:24;16.90;99.90
16976;DHT22;8604;48.148;-1.786;2023-04-25T12:31:00;16.90;99.90
16976;DHT22;8604;48.148;-1.786;2023-04-25T12:33:31;16.80;99.90
16976;DHT22;8604;48.148;-1.786;2023-04-25T12:36:01;16.80;99.90
16976;DHT22;8604;48.148;-1.786;2023-04-25T12:38:36;16.60;99.90
16976;DHT22;8604;48.148;-1.786;2023-04-25T12:41:05;16.60;99.90
16976;DHT22;8604;48.148;-1.786;2023-04-25T12:43:34;16.50;99.90
16976;DHT22;8604;48.148;-1.786;2023-04-25T12:46:04;16.50;99.90
16976;DHT22;8604;48.148;-1.786;2023-04-25T12:48:32;16.40;99.90
16976;DHT22;8604;48.148;-1.786;2023-04-25T12:51:01;16.30;99.90
16976;DHT22;8604;48.148;-1.786;2023-04-25T12:53:29;16.20;99.90
16976;DHT22;8604;48.148;-1.786;2023-04-25T12:56:00;16.20;99.90
16976;DHT22;8604;48.148;-1.786;2023-04-25T12:58:28;16.20;99.90
16976;DHT22;8604;48.148;-1.786;2023-04-25T13:00:57;16.30;99.90
16976;DHT22;8604;48.148;-1.786;2023-04-25T13:03:27;16.30;99.90
16976;DHT22;8604;48.148;-1.786;2023-04-25T13:05:56;16.30;99.90
16976;DHT22;8604;48.148;-1.786;2023-04-25T13:08:24;16.20;99.90
16976;DHT22;8604;48.148;-1.786;2023-04-25T13:10:53;16.10;99.90
16976;DHT22;8604;48.148;-1.786;2023-04-25T13:13:21;16.00;99.90
16976;DHT22;8604;48.148;-1.786;2023-04-25T13:15:50;16.00;99.90
16976;DHT22;8604;48.148;-1.786;2023-04-25T13:18:19;16.10;99.90
16976;DHT22;8604;48.148;-1.786;2023-04-25T13:20:49;16.10;99.90
16976;DHT22;8604;48.148;-1.786;2023-04-25T13:23:17;16.30;99.90
16976;DHT22;8604;48.148;-1.786;2023-04-25T13:25:46;16.50;99.90
16976;DHT22;8604;48.148;-1.786;2023-04-25T13:28:14;16.70;99.90
16976;DHT22;8604;48.148;-1.786;2023-04-25T13:30:43;16.90;99.90
16976;DHT22;8604;48.148;-1.786;2023-04-25T13:33:12;16.80;99.90
16976;DHT22;8604;48.148;-1.786;2023-04-25T13:35:41;16.70;99.90
16976;DHT22;8604;48.148;-1.786;2023-04-25T13:38:11;16.50;99.90
16976;DHT22;8604;48.148;-1.786;2023-04-25T13:40:39;16.60;99.90
16976;DHT22;8604;48.148;-1.786;2023-04-25T13:43:08;16.50;99.90
16976;DHT22;8604;48.148;-1.786;2023-04-25T13:45:36;16.60;99.90
16976;DHT22;8604;48.148;-1.786;2023-04-25T13:48:05;16.60;99.90
16976;DHT22;8604;48.148;-1.786;2023-04-25T13:50:33;16.70;99.90
16976;DHT22;8604;48.148;-1.786;2023-04-25T13:53:02;16.90;99.90
16976;DHT22;8604;48.148;-1.786;2023-04-25T13:55:33;16.80;99.90
16976;DHT22;8604;48.148;-1.786;2023-04-25T13:58:02;16.70;99.90
16976;DHT22;8604;48.148;-1.786;2023-04-25T14:00:36;16.80;99.90
16976;DHT22;8604;48.148;-1.786;2023-04-25T14:03:06;16.80;99.90
16976;DHT22;8604;48.148;-1.786;2023-04-25T14:05:36;16.70;99.90
16976;DHT22;8604;48.148;-1.786;2023-04-25T14:08:06;16.50;99.90
16976;DHT22;8604;48.148;-1.786;2023-04-25T14:10:36;16.60;99.90
16976;DHT22;8604;48.148;-1.786;2023-04-25T14:13:05;16.60;99.90
16976;DHT22;8604;48.148;-1.786;2023-04-25T14:15:37;16.70;99.90
16976;DHT22;8604;48.148;-1.786;2023-04-25T14:18:05;16.80;99.90
16976;DHT22;8604;48.148;-1.786;2023-04-25T14:20:34;16.90;99.90
16976;DHT22;8604;48.148;-1.786;2023-04-25T14:23:02;17.00;99.90
16976;DHT22;8604;48.148;-1.786;2023-04-25T14:25:31;16.90;99.90
16976;DHT22;8604;48.148;-1.786;2023-04-25T14:28:01;16.90;99.90
16976;DHT22;8604;48.148;-1.786;2023-04-25T14:30:30;16.90;99.90
16976;DHT22;8604;48.148;-1.786;2023-04-25T14:32:58;16.90;99.90
16976;DHT22;8604;48.148;-1.786;2023-04-25T14:35:27;16.90;99.90
16976;DHT22;8604;48.148;-1.786;2023-04-25T14:37:55;16.90;99.90
16976;DHT22;8604;48.148;-1.786;2023-04-25T14:40:25;16.90;99.90
16976;DHT22;8604;48.148;-1.786;2023-04-25T14:42:53;16.90;99.90
16976;DHT22;8604;48.148;-1.786;2023-04-25T14:45:23;16.80;99.90
16976;DHT22;8604;48.148;-1.786;2023-04-25T14:47:52;16.80;99.90
16976;DHT22;8604;48.148;-1.786;2023-04-25T14:50:21;16.70;99.90
16976;DHT22;8604;48.148;-1.786;2023-04-25T14:52:49;16.70;99.90
16976;DHT22;8604;48.148;-1.786;2023-04-25T14:55:19;16.70;99.90
16976;DHT22;8604;48.148;-1.786;2023-04-25T14:57:48;16.80;99.90
16976;DHT22;8604;48.148;-1.786;2023-04-25T15:00:17;16.90;99.90
16976;DHT22;8604;48.148;-1.786;2023-04-25T15:02:48;16.90;99.90
16976;DHT22;8604;48.148;-1.786;2023-04-25T15:05:17;16.90;99.90
16976;DHT22;8604;48.148;-1.786;2023-04-25T15:07:47;16.80;99.90
16976;DHT22;8604;48.148;-1.786;2023-04-25T15:10:17;16.80;99.90
16976;DHT22;8604;48.148;-1.786;2023-04-25T15:12:45;16.80;99.90
16976;DHT22;8604;48.148;-1.786;2023-04-25T15:15:14;16.70;99.90
16976;DHT22;8604;48.148;-1.786;2023-04-25T15:24:58;16.60;99.90
16976;DHT22;8604;48.148;-1.786;2023-04-25T15:27:29;16.60;99.90
16976;DHT22;8604;48.148;-1.786;2023-04-25T15:30:00;16.60;99.90
16976;DHT22;8604;48.148;-1.786;2023-04-25T15:32:29;16.70;99.90
16976;DHT22;8604;48.148;-1.786;2023-04-25T15:34:58;16.60;99.90
16976;DHT22;8604;48.148;-1.786;2023-04-25T15:37:37;16.50;99.90
16976;DHT22;8604;48.148;-1.786;2023-04-25T15:40:10;16.50;99.90
16976;DHT22;8604;48.148;-1.786;2023-04-25T15:42:41;16.40;99.90
16976;DHT22;8604;48.148;-1.786;2023-04-25T15:45:38;16.40;99.90
16976;DHT22;8604;48.148;-1.786;2023-04-25T15:48:20;16.30;99.90
16976;DHT22;8604;48.148;-1.786;2023-04-25T15:55:47;16.10;99.90
16976;DHT22;8604;48.148;-1.786;2023-04-25T16:02:47;16.00;99.90
16976;DHT22;8604;48.148;-1.786;2023-04-25T16:05:16;16.00;99.90
16976;DHT22;8604;48.148;-1.786;2023-04-25T16:07:46;16.00;99.90
16976;DHT22;8604;48.148;-1.786;2023-04-25T16:10:24;15.90;99.90
16976;DHT22;8604;48.148;-1.786;2023-04-25T16:12:55;15.90;99.90
16976;DHT22;8604;48.148;-1.786;2023-04-25T16:19:44;15.90;99.90
16976;DHT22;8604;48.148;-1.786;2023-04-25T16:22:13;15.80;99.90
16976;DHT22;8604;48.148;-1.786;2023-04-25T16:24:42;15.70;99.90
16976;DHT22;8604;48.148;-1.786;2023-04-25T16:27:11;15.70;99.90
16976;DHT22;8604;48.148;-1.786;2023-04-25T16:29:41;15.60;99.90
16976;DHT22;8604;48.148;-1.786;2023-04-25T16:32:10;15.60;99.90
16976;DHT22;8604;48.148;-1.786;2023-04-25T16:34:39;15.60;99.90
16976;DHT22;8604;48.148;-1.786;2023-04-25T16:37:08;15.60;99.90
16976;DHT22;8604;48.148;-1.786;2023-04-25T16:39:37;15.50;99.90
16976;DHT22;8604;48.148;-1.786;2023-04-25T16:42:05;15.50;99.90
16976;DHT22;8604;48.148;-1.786;2023-04-25T16:44:34;15.50;99.90
16976;DHT22;8604;48.148;-1.786;2023-04-25T16:47:04;15.50;99.90
16976;DHT22;8604;48.148;-1.786;2023-04-25T16:49:32;15.50;99.90
16976;DHT22;8604;48.148;-1.786;2023-04-25T16:52:01;15.50;99.90